Time;durP1;ratioP1;P1;durP2;ratioP2;P2;SDS_P1;SDS_P2;PMS_P1;PMS_P2;Temp;Humidity;BMP_temperature;BMP_pressure;BME280_temperature;BME280_humidity;BME280_pressure;Samples;Min_cycle;Max_cycle;Signal;HPM_P1;HPM_P2
2023/05/14 00:02:08;;;;;;;;;39.00;33.50;;;;;17.34;53.63;101463.72;5033447;28;53533;-67
2023/05/14 00:04:33;;;;;;;;;45.25;37.00;;;;;17.30;53.77;101454.97;5021263;28;46799;-67
2023/05/14 00:06:58;;;;;;;;;47.75;37.25;;;;;17.33;53.74;101467.28;5022771;28;45694;-68
2023/05/14 00:09:24;;;;;;;;;43.75;37.25;;;;;17.29;53.64;101466.50;5022479;28;45502;-67
2023/05/14 00:11:49;;;;;;;;;45.50;36.25;;;;;17.26;53.74;101468.38;5022849;28;45214;-67
2023/05/14 00:14:14;;;;;;;;;40.75;34.25;;;;;17.27;53.76;101471.00;5021108;28;50655;-67
2023/05/14 00:16:39;;;;;;;;;40.00;35.50;;;;;17.25;53.80;101467.53;5022627;28;45225;-67
2023/05/14 00:19:05;;;;;;;;;37.00;32.50;;;;;17.21;53.90;101461.44;5020897;28;52270;-68
2023/05/14 00:21:31;;;;;;;;;47.00;37.75;;;;;17.16;53.65;101466.00;5022506;28;45237;-68
2023/05/14 00:23:56;;;;;;;;;47.00;35.75;;;;;17.16;53.74;101466.00;5022026;28;45432;-68
2023/05/14 00:26:22;;;;;;;;;45.00;38.00;;;;;17.16;53.72;101475.78;5023569;28;45312;-67
2023/05/14 00:28:47;;;;;;;;;44.50;37.25;;;;;17.13;53.88;101466.13;5027358;28;45410;-67
2023/05/14 00:31:13;;;;;;;;;45.25;36.00;;;;;17.10;53.91;101465.34;5022468;28;45369;-67
2023/05/14 00:33:38;;;;;;;;;39.00;34.50;;;;;17.08;53.75;101461.84;5027351;28;46130;-67
2023/05/14 00:36:04;;;;;;;;;42.75;37.25;;;;;17.06;53.75;101459.25;5022476;28;45308;-67
2023/05/14 00:38:29;;;;;;;;;48.25;38.50;;;;;17.04;53.89;101461.97;5022244;28;45429;-67
2023/05/14 00:40:55;;;;;;;;;50.00;40.00;;;;;17.00;53.87;101459.44;5022212;28;45463;-67
2023/05/14 00:43:21;;;;;;;;;42.75;36.75;;;;;16.98;53.81;101461.25;5021964;28;45415;-67
2023/05/14 00:45:52;;;;;;;;;42.50;36.00;;;;;16.94;54.16;101460.47;5022294;28;45406;-67
2023/05/14 00:48:20;;;;;;;;;43.75;38.00;;;;;16.92;53.88;101451.69;5020845;28;45332;-67
2023/05/14 00:50:46;;;;;;;;;44.75;36.25;;;;;16.87;53.88;101449.13;5022016;28;45439;-67
2023/05/14 00:53:12;;;;;;;;;47.00;38.75;;;;;16.87;53.79;101449.13;5021546;28;45454;-67
2023/05/14 00:55:38;;;;;;;;;40.00;36.00;;;;;16.82;53.92;101447.53;5021996;28;45473;-67
2023/05/14 00:58:08;;;;;;;;;39.75;35.25;;;;;16.85;53.85;101452.75;5022165;28;45221;-67
2023/05/14 01:00:33;;;;;;;;;50.00;40.50;;;;;16.80;53.78;101444.06;5020594;28;45583;-67
2023/05/14 01:03:00;;;;;;;;;48.00;40.25;;;;;16.77;54.01;101441.50;5021714;28;45937;-67
2023/05/14 01:05:31;;;;;;;;;50.50;41.25;;;;;16.78;54.05;101445.88;5022013;28;45323;-67
2023/05/14 01:08:12;;;;;;;;;48.75;38.75;;;;;16.74;53.87;101437.13;5020502;28;45412;-67
2023/05/14 01:11:03;;;;;;;;;47.25;39.00;;;;;16.76;53.99;101445.94;5021827;28;45345;-67
2023/05/14 01:13:50;;;;;;;;;43.50;36.25;;;;;16.72;53.77;101445.13;5005342;28;45412;-67
2023/05/14 01:16:18;;;;;;;;;47.75;37.50;;;;;16.70;53.84;101438.13;5021685;28;45428;-67
2023/05/14 01:18:45;;;;;;;;;46.00;39.25;;;;;16.65;53.84;101438.25;5021761;28;45310;-67
2023/05/14 01:21:34;;;;;;;;;51.75;42.75;;;;;16.66;54.14;101440.00;5021644;28;45340;-67
2023/05/14 01:24:00;;;;;;;;;54.25;43.25;;;;;16.65;53.96;101440.91;5021016;28;45344;-67
2023/05/14 01:26:25;;;;;;;;;52.50;41.00;;;;;16.61;54.04;101443.72;5023218;28;45506;-67
2023/05/14 01:28:54;;;;;;;;;52.50;43.75;;;;;16.58;54.16;101434.91;5026954;28;45264;-67
2023/05/14 01:31:26;;;;;;;;;51.75;42.50;;;;;16.60;54.00;101428.72;5021738;28;45468;-67
2023/05/14 01:33:55;;;;;;;;;45.75;39.00;;;;;16.59;53.90;101430.50;5025894;28;47118;-67
2023/05/14 01:36:21;;;;;;;;;54.25;43.75;;;;;16.54;54.16;101430.63;5020156;28;45299;-67
2023/05/14 01:38:50;;;;;;;;;44.00;37.50;;;;;16.55;53.77;101444.75;5021200;28;45418;-67
2023/05/14 01:41:18;;;;;;;;;51.00;41.25;;;;;16.51;54.16;101433.34;5021252;28;45333;-67
2023/05/14 01:43:44;;;;;;;;;47.00;36.50;;;;;16.48;54.10;101436.09;5020949;28;45426;-67
2023/05/14 01:46:09;;;;;;;;;43.50;36.50;;;;;16.44;54.23;101438.88;5020141;28;45348;-67
2023/05/14 01:48:36;;;;;;;;;48.75;39.75;;;;;16.40;54.15;101436.31;5019985;28;45207;-67
2023/05/14 01:51:02;;;;;;;;;55.75;42.50;;;;;16.36;54.04;101436.44;5021188;28;45495;-67
2023/05/14 01:53:27;;;;;;;;;54.00;40.25;;;;;16.35;54.61;101446.19;5020894;28;45949;-67
2023/05/14 01:55:52;;;;;;;;;48.00;39.00;;;;;16.30;54.31;101436.59;5019396;28;55267;-67
2023/05/14 01:58:18;;;;;;;;;47.50;39.75;;;;;16.30;54.21;101439.25;5019604;28;47901;-67
2023/05/14 02:00:44;;;;;;;;;46.00;40.50;;;;;16.25;54.02;101439.38;5030713;28;45526;-67
2023/05/14 02:03:09;;;;;;;;;47.75;39.50;;;;;16.25;53.92;101437.59;5023022;28;45304;-67
2023/05/14 02:05:34;;;;;;;;;47.75;40.00;;;;;16.25;53.97;101442.00;5019735;28;45277;-67
2023/05/14 02:08:00;;;;;;;;;43.75;37.75;;;;;16.20;53.95;101442.16;5020869;28;45265;-67
2023/05/14 02:10:25;;;;;;;;;51.75;40.75;;;;;16.17;54.13;101438.72;5020877;28;45301;-67
2023/05/14 02:12:50;;;;;;;;;53.50;43.25;;;;;16.18;54.50;101443.97;5018989;28;46123;-67
2023/05/14 02:15:16;;;;;;;;;46.25;39.25;;;;;16.17;54.01;101436.06;5021059;28;45253;-67
2023/05/14 02:17:41;;;;;;;;;53.25;42.75;;;;;16.15;54.22;101446.72;5020742;28;45589;-68
2023/05/14 02:20:08;;;;;;;;;50.00;38.75;;;;;16.11;54.34;101433.56;5020989;28;45531;-67
2023/05/14 02:22:34;;;;;;;;;49.25;39.25;;;;;16.05;54.38;101431.94;5020199;28;46480;-67
2023/05/14 02:24:59;;;;;;;;;47.50;40.00;;;;;16.09;54.09;101438.91;5019643;28;45297;-68
2023/05/14 02:27:25;;;;;;;;;46.75;38.25;;;;;16.06;54.10;101439.88;5028023;28;45459;-68
2023/05/14 02:29:50;;;;;;;;;50.50;37.75;;;;;16.05;54.42;101431.94;5020763;28;45292;-68
2023/05/14 02:32:15;;;;;;;;;44.00;37.50;;;;;16.05;54.45;101434.59;5019040;28;48391;-67
2023/05/14 02:34:41;;;;;;;;;50.25;36.50;;;;;16.03;54.30;101433.78;5024031;28;51210;-68
2023/05/14 02:37:06;;;;;;;;;41.00;37.75;;;;;16.05;54.15;101437.25;5020767;28;45337;-68
2023/05/14 02:39:31;;;;;;;;;48.75;40.25;;;;;16.00;54.47;101437.38;5020442;28;45680;-67
2023/05/14 02:41:57;;;;;;;;;48.50;37.75;;;;;15.99;54.13;101434.78;5019040;28;46388;-68
2023/05/14 02:44:22;;;;;;;;;51.00;40.75;;;;;15.98;54.64;101438.34;5020460;28;45374;-67
2023/05/14 02:46:47;;;;;;;;;48.00;39.50;;;;;15.98;54.44;101447.13;5019193;28;45502;-67
2023/05/14 02:49:12;;;;;;;;;43.75;37.25;;;;;15.93;54.16;101441.94;5019300;28;45325;-67
2023/05/14 02:51:38;;;;;;;;;53.00;41.50;;;;;15.93;54.34;101435.78;5020312;28;45326;-67
2023/05/14 02:54:04;;;;;;;;;51.50;39.50;;;;;15.92;54.20;101432.28;5020251;28;45407;-67
2023/05/14 02:56:29;;;;;;;;;49.75;40.00;;;;;15.87;54.55;101433.28;5018957;28;45520;-67
2023/05/14 02:58:55;;;;;;;;;42.75;35.75;;;;;15.88;54.21;101433.25;5020254;28;50555;-68
2023/05/14 03:01:20;;;;;;;;;50.00;39.25;;;;;15.88;54.30;101435.91;5031884;28;45410;-67
2023/05/14 03:03:45;;;;;;;;;50.50;41.00;;;;;15.86;54.37;101432.44;5018920;28;45657;-67
2023/05/14 03:06:11;;;;;;;;;49.75;39.25;;;;;15.86;54.32;101437.72;5018966;28;45677;-68
2023/05/14 03:08:36;;;;;;;;;44.25;36.00;;;;;15.85;54.77;101430.69;5020084;28;45290;-68
2023/05/14 03:11:01;;;;;;;;;52.25;40.75;;;;;15.84;54.33;101436.88;5018608;28;45972;-68
2023/05/14 03:13:27;;;;;;;;;51.00;40.50;;;;;15.82;54.52;101436.03;5020082;28;45239;-67
2023/05/14 03:15:53;;;;;;;;;51.75;41.75;;;;;15.81;54.50;101438.72;5020077;28;45356;-68
2023/05/14 03:18:19;;;;;;;;;49.25;41.75;;;;;15.77;54.21;101437.91;5020276;28;45327;-67
2023/05/14 03:20:45;;;;;;;;;43.75;36.50;;;;;15.79;54.44;101438.75;5019786;28;46111;-67
2023/05/14 03:23:10;;;;;;;;;55.25;43.75;;;;;15.77;54.85;101428.19;5019791;28;45195;-68
2023/05/14 03:25:35;;;;;;;;;51.75;41.75;;;;;15.77;54.50;101429.97;5018980;28;45797;-67
2023/05/14 03:28:02;;;;;;;;;54.25;42.00;;;;;15.77;54.82;101432.63;5028073;28;45563;-67
2023/05/14 03:30:27;;;;;;;;;49.75;41.25;;;;;15.75;54.29;101434.44;5019698;28;46321;-67
2023/05/14 03:32:53;;;;;;;;;53.75;42.25;;;;;15.72;54.87;101426.56;5019757;28;45320;-67
2023/05/14 03:35:18;;;;;;;;;49.50;40.75;;;;;15.73;54.42;101425.66;5024216;28;45283;-67
2023/05/14 03:37:43;;;;;;;;;52.50;39.50;;;;;15.70;54.76;101429.25;5019822;28;45348;-68
2023/05/14 03:40:09;;;;;;;;;52.50;42.50;;;;;15.72;54.62;101434.50;5019265;28;45837;-67
2023/05/14 03:42:34;;;;;;;;;54.75;40.75;;;;;15.70;54.58;101439.84;5019617;28;45383;-68
2023/05/14 03:45:00;;;;;;;;;54.00;42.50;;;;;15.62;54.73;101430.34;5019710;28;45334;-67
2023/05/14 03:47:25;;;;;;;;;50.00;41.00;;;;;15.67;54.81;101439.94;5019766;28;45254;-67
2023/05/14 03:49:50;;;;;;;;;54.75;41.25;;;;;15.65;54.57;101435.59;5019691;28;45439;-68
2023/05/14 03:52:16;;;;;;;;;52.75;43.75;;;;;15.62;55.00;101433.00;5019633;28;45263;-68
2023/05/14 03:54:41;;;;;;;;;54.00;42.50;;;;;15.56;54.88;101423.44;5019195;28;45221;-67
2023/05/14 03:57:06;;;;;;;;;54.75;44.00;;;;;15.56;54.77;101428.75;5019662;28;45395;-68
2023/05/14 03:59:32;;;;;;;;;52.25;41.00;;;;;15.58;54.79;101435.72;5019335;28;45487;-68
2023/05/14 04:01:57;;;;;;;;;52.50;42.25;;;;;15.53;54.63;101421.69;5031406;28;45229;-67
2023/05/14 04:04:22;;;;;;;;;53.25;42.00;;;;;15.54;54.78;101434.03;5019296;28;45245;-68
2023/05/14 04:06:48;;;;;;;;;55.50;41.50;;;;;15.50;54.67;101431.53;5019346;28;45456;-67
2023/05/14 04:09:13;;;;;;;;;53.25;42.25;;;;;15.49;54.82;101433.28;5018951;28;49831;-67
2023/05/14 04:11:38;;;;;;;;;54.00;44.00;;;;;15.45;54.91;101431.63;5019349;28;45331;-67
2023/05/14 04:14:04;;;;;;;;;49.00;39.75;;;;;15.44;54.87;101433.41;5019205;28;45281;-68
2023/05/14 04:16:29;;;;;;;;;51.75;42.00;;;;;15.43;54.56;101429.03;5019292;28;45439;-67
2023/05/14 04:18:55;;;;;;;;;50.50;40.50;;;;;15.43;55.12;101434.31;5019062;28;50311;-68
2023/05/14 04:21:20;;;;;;;;;45.50;37.25;;;;;15.39;54.90;101434.41;5019333;28;45275;-67
2023/05/14 04:23:45;;;;;;;;;49.50;39.75;;;;;15.38;54.79;101438.84;5018852;28;45235;-67
2023/05/14 04:26:10;;;;;;;;;52.00;41.00;;;;;15.40;55.08;101442.31;5018810;28;45440;-67
2023/05/14 04:28:36;;;;;;;;;50.00;41.75;;;;;15.39;54.69;101437.06;5026509;28;45252;-67
2023/05/14 04:31:01;;;;;;;;;50.25;40.50;;;;;15.39;54.97;101437.06;5017719;28;45337;-68
2023/05/14 04:33:26;;;;;;;;;51.25;40.75;;;;;15.39;55.19;101447.66;5022872;28;45380;-68
2023/05/14 04:35:52;;;;;;;;;47.25;40.00;;;;;15.36;55.11;101439.81;5020037;28;45293;-68
2023/05/14 04:38:17;;;;;;;;;47.75;36.50;;;;;15.34;55.15;101438.94;5017529;28;48449;-68
2023/05/14 04:40:43;;;;;;;;;47.75;38.25;;;;;15.32;55.09;101449.59;5018806;28;45358;-68
2023/05/14 04:43:08;;;;;;;;;50.50;41.25;;;;;15.30;55.11;101448.75;5019138;28;45508;-67
2023/05/14 04:45:33;;;;;;;;;51.50;42.25;;;;;15.26;55.30;101444.44;5018782;28;45344;-67
2023/05/14 04:47:59;;;;;;;;;53.50;41.25;;;;;15.26;55.30;101447.94;5021363;28;45415;-68
2023/05/14 04:50:24;;;;;;;;;50.25;40.75;;;;;15.22;55.19;101445.38;5022249;28;45404;-67
2023/05/14 04:52:50;;;;;;;;;48.00;38.25;;;;;15.23;55.17;101447.13;5022090;28;45484;-68
2023/05/14 04:55:15;;;;;;;;;46.00;39.00;;;;;15.18;54.97;101447.25;5020760;28;45590;-67
2023/05/14 04:57:40;;;;;;;;;44.50;37.00;;;;;15.11;54.79;101429.75;5020837;28;46972;-67
2023/05/14 05:00:08;;;;;;;;;43.00;36.00;;;;;15.18;55.47;101447.25;5026457;28;45395;-67
2023/05/14 05:02:34;;;;;;;;;45.50;37.50;;;;;15.17;55.39;101445.50;5029730;28;45304;-68
2023/05/14 05:04:59;;;;;;;;;50.50;39.00;;;;;15.16;55.26;101451.69;5020643;28;45179;-67
2023/05/14 05:07:25;;;;;;;;;44.25;37.50;;;;;15.12;55.52;101439.44;5020738;28;46977;-68
2023/05/14 05:09:50;;;;;;;;;45.25;36.25;;;;;15.13;55.21;101443.81;5021561;28;45219;-67
2023/05/14 05:12:15;;;;;;;;;49.50;39.25;;;;;15.10;55.36;101436.81;5022238;28;45300;-67
2023/05/14 05:14:41;;;;;;;;;47.75;39.25;;;;;15.09;55.52;101435.09;5021765;28;45469;-67
2023/05/14 05:17:06;;;;;;;;;46.75;37.00;;;;;15.06;55.13;101440.44;5021963;28;45202;-68
2023/05/14 05:19:31;;;;;;;;;44.50;39.00;;;;;15.07;55.12;101436.88;5021610;28;49609;-68
2023/05/14 05:21:57;;;;;;;;;47.75;38.75;;;;;15.05;55.26;101427.25;5020795;28;45290;-68
2023/05/14 05:24:22;;;;;;;;;48.75;38.00;;;;;15.04;55.19;101433.44;5019720;28;45254;-68
2023/05/14 05:26:49;;;;;;;;;48.50;39.50;;;;;15.04;55.35;101442.25;5026232;28;46375;-67
2023/05/14 05:29:14;;;;;;;;;49.50;40.75;;;;;15.04;55.62;101436.06;5024129;28;45427;-68
2023/05/14 05:31:40;;;;;;;;;48.00;37.00;;;;;15.04;55.46;101444.03;5020579;28;45333;-68
2023/05/14 05:34:06;;;;;;;;;46.50;36.75;;;;;15.02;55.46;101437.88;5026291;28;45437;-67
2023/05/14 05:36:31;;;;;;;;;53.75;41.50;;;;;15.04;55.18;101436.06;5020279;28;47370;-67
2023/05/14 05:38:56;;;;;;;;;47.50;39.00;;;;;15.05;55.38;101435.19;5021237;28;45261;-67
2023/05/14 05:41:22;;;;;;;;;50.00;38.75;;;;;15.00;55.51;101429.97;5021716;28;45285;-67
2023/05/14 05:43:47;;;;;;;;;44.00;39.00;;;;;15.05;55.41;101443.13;5019675;28;45820;-67
2023/05/14 05:46:12;;;;;;;;;50.25;41.25;;;;;15.03;55.48;101451.09;5021427;28;45170;-67
2023/05/14 05:48:37;;;;;;;;;49.50;40.00;;;;;14.99;55.38;101437.97;5021412;28;45268;-67
2023/05/14 05:51:03;;;;;;;;;49.00;38.50;;;;;15.04;55.31;101451.97;5021537;28;45431;-67
2023/05/14 05:53:28;;;;;;;;;45.00;37.50;;;;;15.02;55.58;101454.66;5021014;28;45486;-67
2023/05/14 05:55:54;;;;;;;;;46.50;38.50;;;;;15.02;55.22;101461.69;5020718;28;45264;-67
2023/05/14 05:58:19;;;;;;;;;53.00;41.75;;;;;14.97;55.55;101459.16;5020674;28;45238;-66
2023/05/14 06:00:45;;;;;;;;;54.00;43.25;;;;;14.98;55.80;101467.97;5030971;28;45216;-68
2023/05/14 06:03:12;;;;;;;;;47.50;40.00;;;;;14.97;55.63;101472.41;5023461;28;45268;-67
2023/05/14 06:05:37;;;;;;;;;50.25;40.75;;;;;14.94;55.25;101473.34;5020818;28;45368;-68
2023/05/14 06:08:03;;;;;;;;;49.50;40.50;;;;;14.93;55.46;101471.59;5024883;28;45663;-59
2023/05/14 06:10:28;;;;;;;;;46.50;38.00;;;;;14.94;55.39;101468.03;5020967;28;45387;-62
2023/05/14 06:12:54;;;;;;;;;45.25;38.00;;;;;14.94;55.23;101475.09;5019734;28;45403;-66
2023/05/14 06:15:20;;;;;;;;;47.75;38.00;;;;;14.92;55.32;101484.84;5020452;28;45456;-66
2023/05/14 06:17:45;;;;;;;;;51.75;40.25;;;;;14.90;55.74;101482.22;5021248;28;45461;-67
2023/05/14 06:20:11;;;;;;;;;50.25;41.00;;;;;14.91;55.61;101483.97;5029812;28;45405;-66
2023/05/14 06:22:36;;;;;;;;;48.00;39.00;;;;;14.89;55.74;101485.78;5020710;28;45319;-70
2023/05/14 06:25:02;;;;;;;;;47.50;37.75;;;;;14.89;55.51;101484.91;5019938;28;45627;-69
2023/05/14 06:27:28;;;;;;;;;52.50;41.50;;;;;14.79;55.44;101469.22;5027680;28;45399;-68
2023/05/14 06:29:53;;;;;;;;;44.25;37.00;;;;;14.84;55.71;101481.47;5020711;28;45317;-68
2023/05/14 06:32:18;;;;;;;;;48.50;39.25;;;;;14.86;55.32;101499.06;5020184;28;45339;-67
2023/05/14 06:34:43;;;;;;;;;52.75;41.50;;;;;14.85;55.67;101499.97;5023392;28;58194;-67
2023/05/14 06:37:09;;;;;;;;;48.50;38.25;;;;;14.82;55.71;101500.03;5018911;28;45382;-67
2023/05/14 06:39:36;;;;;;;;;46.75;38.25;;;;;14.85;55.72;101507.06;5020450;28;45238;-67
2023/05/14 06:42:02;;;;;;;;;49.75;40.75;;;;;14.83;55.78;101511.50;5020375;28;45487;-67
2023/05/14 06:44:27;;;;;;;;;49.50;40.25;;;;;14.87;55.98;101510.56;5019919;28;47315;-67
2023/05/14 06:46:52;;;;;;;;;52.25;40.25;;;;;14.85;55.82;101510.56;5019929;28;45336;-67
2023/05/14 06:49:18;;;;;;;;;50.25;41.25;;;;;14.86;55.97;101507.00;5018912;28;45369;-67
2023/05/14 06:51:44;;;;;;;;;46.75;39.00;;;;;14.87;56.00;101505.25;5020092;28;45631;-67
2023/05/14 06:54:10;;;;;;;;;50.25;38.25;;;;;14.89;55.61;101495.50;5019425;28;45556;-67
2023/05/14 06:56:35;;;;;;;;;42.00;35.00;;;;;14.89;55.50;101498.13;5019944;28;45273;-68
2023/05/14 06:59:01;;;;;;;;;48.75;40.00;;;;;14.90;55.95;101497.25;5019137;28;45340;-68
2023/05/14 07:01:26;;;;;;;;;48.25;37.75;;;;;14.87;55.60;101489.38;5032203;28;45360;-67
2023/05/14 07:03:51;;;;;;;;;52.50;40.00;;;;;14.88;56.05;101492.00;5019996;28;45198;-68
2023/05/14 07:06:17;;;;;;;;;47.25;38.75;;;;;14.90;55.71;101495.44;5018260;28;57182;-67
2023/05/14 07:08:46;;;;;;;;;54.00;42.50;;;;;14.88;55.94;101499.94;5018657;28;45814;-67
2023/05/14 07:11:15;;;;;;;;;48.75;39.25;;;;;14.88;56.02;101491.09;5019282;28;45455;-67
2023/05/14 07:13:40;;;;;;;;;48.00;39.00;;;;;14.89;55.75;101496.38;5018442;28;47138;-67
2023/05/14 07:16:08;;;;;;;;;44.50;35.50;;;;;14.86;55.62;101491.13;5020048;28;45380;-67
2023/05/14 07:18:34;;;;;;;;;45.00;34.50;;;;;14.87;55.98;101498.19;5018792;28;45277;-67
2023/05/14 07:20:59;;;;;;;;;47.75;39.00;;;;;14.86;56.00;101496.44;5018450;28;45281;-68
2023/05/14 07:23:24;;;;;;;;;43.50;37.50;;;;;14.84;55.89;101502.66;5019458;28;45340;-67
2023/05/14 07:25:49;;;;;;;;;43.75;33.50;;;;;14.85;55.55;101504.41;5016522;28;51122;-67
2023/05/14 07:28:15;;;;;;;;;41.50;34.50;;;;;14.83;56.19;101498.25;5030067;28;45492;-67
2023/05/14 07:30:40;;;;;;;;;45.25;36.75;;;;;14.83;55.82;101501.78;5019784;28;45455;-67
2023/05/14 07:33:05;;;;;;;;;46.00;38.00;;;;;14.86;55.98;101499.06;5019120;28;47995;-67
2023/05/14 07:35:31;;;;;;;;;44.25;36.25;;;;;14.88;55.88;101506.97;5023540;28;45516;-68
2023/05/14 07:37:57;;;;;;;;;44.50;36.25;;;;;14.89;55.83;101503.44;5019526;28;45130;-66
2023/05/14 07:40:23;;;;;;;;;37.50;32.50;;;;;14.80;55.85;101491.25;5019153;28;45467;-66
2023/05/14 07:42:49;;;;;;;;;50.50;41.50;;;;;14.87;55.64;101503.47;5017809;28;46344;-66
2023/05/14 07:45:14;;;;;;;;;44.75;35.50;;;;;14.85;55.65;101504.41;5019394;28;45416;-65
2023/05/14 07:47:40;;;;;;;;;50.25;38.50;;;;;14.87;55.47;101503.47;5019828;28;45256;-67
2023/05/14 07:50:06;;;;;;;;;49.50;39.00;;;;;14.90;56.01;101513.97;5019394;28;45438;-65
2023/05/14 07:52:31;;;;;;;;;48.50;40.00;;;;;14.87;55.94;101508.75;5019572;28;46442;-66
2023/05/14 07:54:57;;;;;;;;;47.50;37.00;;;;;14.91;56.02;101513.09;5017682;28;45317;-66
2023/05/14 07:57:22;;;;;;;;;55.50;43.50;;;;;14.91;55.89;101510.44;5019640;28;45251;-67
2023/05/14 07:59:47;;;;;;;;;49.75;42.25;;;;;14.90;56.03;101515.75;5021214;28;49340;-66
2023/05/14 08:02:14;;;;;;;;;44.75;35.75;;;;;14.84;55.97;101508.84;5030245;28;45947;-67
2023/05/14 08:04:40;;;;;;;;;47.25;38.00;;;;;14.91;56.20;101513.09;5019214;28;45158;-67
2023/05/14 08:07:07;;;;;;;;;42.75;35.00;;;;;14.90;55.80;101521.06;5019490;28;45197;-66
2023/05/14 08:09:33;;;;;;;;;47.00;38.50;;;;;14.91;56.15;101522.81;5019102;28;45430;-66
2023/05/14 08:11:58;;;;;;;;;49.50;40.50;;;;;14.90;55.83;101513.97;5019109;28;45313;-65
2023/05/14 08:14:23;;;;;;;;;47.00;38.00;;;;;14.90;56.09;101516.63;5019051;28;45779;-64
2023/05/14 08:16:49;;;;;;;;;46.50;38.25;;;;;14.91;56.20;101515.72;5018104;28;45325;-65
2023/05/14 08:19:14;;;;;;;;;46.75;38.25;;;;;14.91;56.13;101515.72;5019065;28;45427;-65
2023/05/14 08:21:40;;;;;;;;;46.75;37.75;;;;;14.89;56.02;101512.25;5019814;28;46166;-65
2023/05/14 08:24:05;;;;;;;;;48.50;38.00;;;;;14.90;56.24;101518.41;5022143;28;45313;-66
2023/05/14 08:26:31;;;;;;;;;49.50;38.50;;;;;14.89;56.04;101516.66;5020855;28;45349;-61
2023/05/14 08:28:56;;;;;;;;;51.25;40.00;;;;;14.92;55.76;101514.84;5021132;28;45479;-62
2023/05/14 08:31:21;;;;;;;;;48.25;38.50;;;;;14.93;55.88;101529.81;5022715;28;45277;-61
2023/05/14 08:33:47;;;;;;;;;49.00;39.25;;;;;14.94;55.80;101528.91;5026925;28;45407;-60
2023/05/14 08:36:12;;;;;;;;;44.50;37.00;;;;;14.94;56.19;101528.03;5022581;28;45360;-60
2023/05/14 08:38:38;;;;;;;;;46.50;36.25;;;;;14.98;55.87;101532.38;5020734;28;45249;-60
2023/05/14 08:41:05;;;;;;;;;49.00;41.25;;;;;14.98;55.89;101527.09;5022099;28;45265;-66
2023/05/14 08:43:59;;;;;;;;;51.50;41.00;;;;;14.98;56.22;101527.09;5022187;28;45232;-66
2023/05/14 08:46:29;;;;;;;;;57.25;44.00;;;;;14.98;56.15;101526.19;5014099;28;45506;-67
2023/05/14 08:49:37;;;;;;;;;50.50;38.25;;;;;14.99;56.11;101522.66;5021451;28;45709;-68
2023/05/14 08:52:02;;;;;;;;;53.25;41.25;;;;;15.00;55.87;101529.69;5020186;28;47447;-67
2023/05/14 08:54:31;;;;;;;;;49.25;38.50;;;;;15.00;55.75;101525.25;5020667;28;45480;-67
2023/05/14 08:56:57;;;;;;;;;49.50;39.00;;;;;15.01;55.90;101523.50;5020155;28;45692;-68
2023/05/14 08:59:23;;;;;;;;;51.25;40.00;;;;;15.03;55.93;101527.84;5021357;28;45349;-71
2023/05/14 09:01:52;;;;;;;;;50.50;40.25;;;;;15.00;56.25;101524.41;5034368;28;46449;-70
2023/05/14 09:04:22;;;;;;;;;46.25;36.25;;;;;15.03;56.34;101537.56;5021865;28;45295;-70
2023/05/14 09:06:52;;;;;;;;;49.75;40.25;;;;;15.03;55.78;101534.91;5009134;28;45325;-67
2023/05/14 09:09:21;;;;;;;;;54.00;40.75;;;;;15.04;56.04;101526.97;5021739;28;45517;-70
2023/05/14 09:11:47;;;;;;;;;47.75;38.50;;;;;15.03;56.10;101516.38;5021752;28;45214;-67
2023/05/14 09:14:13;;;;;;;;;53.75;44.00;;;;;15.06;55.67;101517.19;5021682;28;45341;-68
2023/05/14 09:16:41;;;;;;;;;49.00;39.75;;;;;15.07;55.96;101512.78;5021909;28;45305;-68
2023/05/14 09:19:07;;;;;;;;;52.50;41.00;;;;;15.11;56.08;101522.41;5021815;28;45325;-68
2023/05/14 09:21:33;;;;;;;;;52.00;41.25;;;;;15.10;56.18;101512.72;5020325;28;46684;-68
2023/05/14 09:23:59;;;;;;;;;51.25;40.50;;;;;15.13;56.12;101520.56;5021391;28;45387;-67
2023/05/14 09:26:25;;;;;;;;;50.50;38.00;;;;;15.14;56.12;101518.81;5020191;28;45386;-68
2023/05/14 09:28:56;;;;;;;;;55.00;42.25;;;;;15.15;56.34;101515.28;5021175;28;45340;-68
2023/05/14 09:31:21;;;;;;;;;50.75;39.50;;;;;15.16;55.88;101512.59;5021527;28;46488;-67
2023/05/14 09:33:50;;;;;;;;;48.50;40.25;;;;;15.17;55.80;101511.69;5023802;28;45772;-68
2023/05/14 09:36:16;;;;;;;;;54.75;42.25;;;;;15.18;56.11;101516.09;5021597;28;45278;-66
2023/05/14 09:38:41;;;;;;;;;54.25;39.50;;;;;15.17;55.86;101511.69;5021053;28;45727;-67
2023/05/14 09:41:07;;;;;;;;;50.25;39.00;;;;;15.19;56.14;101509.84;5021184;28;46124;-66
2023/05/14 09:43:32;;;;;;;;;57.00;43.75;;;;;15.21;55.82;101515.16;5020154;28;45582;-68
2023/05/14 09:45:57;;;;;;;;;57.75;47.00;;;;;15.13;56.17;101494.09;5020625;28;45513;-61
2023/05/14 09:48:24;;;;;;;;;49.75;40.25;;;;;15.23;56.29;101514.22;5020799;28;45577;-62
2023/05/14 09:50:50;;;;;;;;;55.25;42.75;;;;;15.25;56.28;101508.88;5021079;28;45388;-65
2023/05/14 09:53:16;;;;;;;;;54.00;42.50;;;;;15.28;56.01;101509.69;5020794;28;45337;-65
2023/05/14 09:55:42;;;;;;;;;51.25;39.50;;;;;15.26;55.84;101507.97;5019658;28;45341;-65
2023/05/14 09:58:07;;;;;;;;;50.00;41.25;;;;;15.33;55.93;101517.50;5021208;28;45356;-65
2023/05/14 10:00:34;;;;;;;;;50.50;41.75;;;;;15.34;56.25;101519.25;5029105;28;45292;-65
2023/05/14 10:03:04;;;;;;;;;56.75;43.50;;;;;15.34;55.92;101507.81;5024475;28;45243;-65
2023/05/14 10:05:34;;;;;;;;;55.25;43.25;;;;;15.38;56.15;101518.31;5021181;28;45317;-65
2023/05/14 10:08:04;;;;;;;;;50.75;41.50;;;;;15.40;55.88;101518.25;5020887;28;45317;-64
2023/05/14 10:10:32;;;;;;;;;50.00;41.75;;;;;15.40;56.13;101512.97;5020766;28;46171;-65
2023/05/14 10:13:05;;;;;;;;;56.50;44.00;;;;;15.43;56.37;101515.53;5020604;28;45423;-65
2023/05/14 10:15:41;;;;;;;;;54.00;43.00;;;;;15.44;56.31;101523.47;5021141;28;45273;-65
2023/05/14 10:18:14;;;;;;;;;55.50;44.75;;;;;15.46;56.27;101519.88;5008859;28;46170;-65
2023/05/14 10:20:40;;;;;;;;;51.25;41.00;;;;;15.46;55.79;101512.84;5020706;28;46177;-64
2023/05/14 10:23:09;;;;;;;;;56.50;44.00;;;;;15.46;56.28;101517.25;5020437;28;45431;-65
2023/05/14 10:25:36;;;;;;;;;58.00;43.50;;;;;15.46;56.04;101507.53;5018390;28;45442;-65
2023/05/14 10:28:02;;;;;;;;;55.75;43.00;;;;;15.45;55.87;101505.78;5017175;28;45377;-65
2023/05/14 10:30:27;;;;;;;;;57.00;43.50;;;;;15.51;56.23;101500.34;5019038;28;48003;-65
2023/05/14 10:33:15;;;;;;;;;50.75;40.50;;;;;15.52;55.87;101504.75;5020476;28;45415;-65
2023/05/14 10:35:50;;;;;;;;;56.00;41.50;;;;;15.54;55.89;101510.88;5017975;28;45316;-64
2023/05/14 10:38:15;;;;;;;;;48.50;41.50;;;;;15.53;55.79;101506.47;5018714;28;45554;-65
2023/05/14 10:40:40;;;;;;;;;53.00;42.50;;;;;15.55;56.12;101507.31;5020039;28;45458;-65
2023/05/14 10:43:07;;;;;;;;;50.00;40.75;;;;;15.58;56.08;101501.97;5020314;28;45372;-65
2023/05/14 10:45:33;;;;;;;;;53.50;41.25;;;;;15.56;56.13;101506.41;5019442;28;45363;-66
2023/05/14 10:47:59;;;;;;;;;57.75;44.00;;;;;15.59;56.19;101502.81;5020359;28;45493;-67
2023/05/14 10:50:25;;;;;;;;;54.25;42.50;;;;;15.61;56.08;101506.31;5020019;28;46268;-66
2023/05/14 10:52:51;;;;;;;;;54.25;43.50;;;;;15.63;56.21;101507.13;5020059;28;45360;-65
2023/05/14 10:55:17;;;;;;;;;54.00;43.00;;;;;15.67;56.22;101500.00;5020194;28;45383;-66
2023/05/14 10:57:44;;;;;;;;;57.25;45.50;;;;;15.70;56.18;101497.28;5020180;28;45416;-62
2023/05/14 11:00:12;;;;;;;;;53.75;44.50;;;;;15.68;56.06;101489.34;5024935;28;45478;-63
2023/05/14 11:02:43;;;;;;;;;61.00;49.50;;;;;15.70;55.89;101486.69;5025519;28;45278;-62
2023/05/14 11:05:12;;;;;;;;;58.25;47.00;;;;;15.76;55.65;101490.06;5006176;28;45334;-64
2023/05/14 11:07:40;;;;;;;;;57.00;44.25;;;;;15.83;56.17;101497.88;5019808;28;45313;-64